sensor_id;sensor_type;location;lat;lon;timestamp;temperature;humidity
11239;DHT22;5677;48.488;13.436;2024-02-15T00:02:04;13.70;49.60
11239;DHT22;5677;48.488;13.436;2024-02-15T00:04:31;13.70;49.60
11239;DHT22;5677;48.488;13.436;2024-02-15T00:06:59;13.70;49.60
11239;DHT22;5677;48.488;13.436;2024-02-15T00:09:28;13.70;49.60
11239;DHT22;5677;48.488;13.436;2024-02-15T00:11:56;13.70;49.60
11239;DHT22;5677;48.488;13.436;2024-02-15T00:14:25;13.60;49.50
11239;DHT22;5677;48.488;13.436;2024-02-15T00:16:51;13.70;49.60
11239;DHT22;5677;48.488;13.436;2024-02-15T00:19:18;13.70;49.60
11239;DHT22;5677;48.488;13.436;2024-02-15T00:21:45;13.60;49.50
11239;DHT22;5677;48.488;13.436;2024-02-15T00:24:12;13.70;49.70
11239;DHT22;5677;48.488;13.436;2024-02-15T00:26:41;13.60;49.50
11239;DHT22;5677;48.488;13.436;2024-02-15T00:29:08;13.70;49.70
11239;DHT22;5677;48.488;13.436;2024-02-15T00:31:35;13.60;49.50
11239;DHT22;5677;48.488;13.436;2024-02-15T00:34:03;13.60;49.50
11239;DHT22;5677;48.488;13.436;2024-02-15T00:36:30;13.70;49.70
11239;DHT22;5677;48.488;13.436;2024-02-15T00:38:57;13.60;49.60
11239;DHT22;5677;48.488;13.436;2024-02-15T00:41:24;13.70;49.60
11239;DHT22;5677;48.488;13.436;2024-02-15T00:43:52;13.60;49.60
11239;DHT22;5677;48.488;13.436;2024-02-15T00:46:19;13.60;49.50
11239;DHT22;5677;48.488;13.436;2024-02-15T00:48:46;13.60;49.60
11239;DHT22;5677;48.488;13.436;2024-02-15T00:51:13;13.60;49.60
11239;DHT22;5677;48.488;13.436;2024-02-15T00:53:40;13.60;49.60
11239;DHT22;5677;48.488;13.436;2024-02-15T00:56:07;13.60;49.60
11239;DHT22;5677;48.488;13.436;2024-02-15T00:58:33;13.60;49.60
11239;DHT22;5677;48.488;13.436;2024-02-15T01:01:02;13.60;49.60
11239;DHT22;5677;48.488;13.436;2024-02-15T01:03:28;13.60;49.60
11239;DHT22;5677;48.488;13.436;2024-02-15T01:05:56;13.60;49.60
11239;DHT22;5677;48.488;13.436;2024-02-15T01:08:23;13.60;49.60
11239;DHT22;5677;48.488;13.436;2024-02-15T01:10:49;13.60;49.60
11239;DHT22;5677;48.488;13.436;2024-02-15T01:13:18;13.60;49.60
11239;DHT22;5677;48.488;13.436;2024-02-15T01:15:45;13.60;49.60
11239;DHT22;5677;48.488;13.436;2024-02-15T01:18:13;13.60;49.60
11239;DHT22;5677;48.488;13.436;2024-02-15T01:20:39;13.60;49.60
11239;DHT22;5677;48.488;13.436;2024-02-15T01:23:06;13.60;49.60
11239;DHT22;5677;48.488;13.436;2024-02-15T01:25:33;13.60;49.60
11239;DHT22;5677;48.488;13.436;2024-02-15T01:28:00;13.60;49.60
11239;DHT22;5677;48.488;13.436;2024-02-15T01:30:28;13.60;49.60
11239;DHT22;5677;48.488;13.436;2024-02-15T01:32:55;13.60;49.60
11239;DHT22;5677;48.488;13.436;2024-02-15T01:35:23;13.60;49.60
11239;DHT22;5677;48.488;13.436;2024-02-15T01:37:50;13.60;49.60
11239;DHT22;5677;48.488;13.436;2024-02-15T01:40:17;13.60;49.60
11239;DHT22;5677;48.488;13.436;2024-02-15T01:42:45;13.60;49.60
11239;DHT22;5677;48.488;13.436;2024-02-15T01:45:11;13.60;49.60
11239;DHT22;5677;48.488;13.436;2024-02-15T01:47:38;13.60;49.60
11239;DHT22;5677;48.488;13.436;2024-02-15T01:50:06;13.60;49.60
11239;DHT22;5677;48.488;13.436;2024-02-15T01:52:35;13.50;49.60
11239;DHT22;5677;48.488;13.436;2024-02-15T01:55:03;13.50;49.60
11239;DHT22;5677;48.488;13.436;2024-02-15T01:57:33;13.60;49.60
11239;DHT22;5677;48.488;13.436;2024-02-15T02:00:01;13.60;49.60
11239;DHT22;5677;48.488;13.436;2024-02-15T02:02:31;13.60;49.60
11239;DHT22;5677;48.488;13.436;2024-02-15T02:04:58;13.50;49.70
11239;DHT22;5677;48.488;13.436;2024-02-15T02:07:24;13.50;49.70
11239;DHT22;5677;48.488;13.436;2024-02-15T02:09:52;13.50;49.60
11239;DHT22;5677;48.488;13.436;2024-02-15T02:12:19;13.50;49.70
11239;DHT22;5677;48.488;13.436;2024-02-15T02:14:46;13.60;49.70
11239;DHT22;5677;48.488;13.436;2024-02-15T02:17:13;13.50;49.70
11239;DHT22;5677;48.488;13.436;2024-02-15T02:19:41;13.50;49.60
11239;DHT22;5677;48.488;13.436;2024-02-15T02:22:09;13.50;49.60
11239;DHT22;5677;48.488;13.436;2024-02-15T02:27:15;13.50;49.60
11239;DHT22;5677;48.488;13.436;2024-02-15T02:29:43;13.50;49.60
11239;DHT22;5677;48.488;13.436;2024-02-15T02:32:11;13.50;49.60
11239;DHT22;5677;48.488;13.436;2024-02-15T02:34:38;13.50;49.60
11239;DHT22;5677;48.488;13.436;2024-02-15T02:37:06;13.60;49.70
11239;DHT22;5677;48.488;13.436;2024-02-15T02:39:33;13.50;49.70
11239;DHT22;5677;48.488;13.436;2024-02-15T02:42:00;13.50;49.70
11239;DHT22;5677;48.488;13.436;2024-02-15T02:44:28;13.50;49.70
11239;DHT22;5677;48.488;13.436;2024-02-15T02:46:55;13.60;49.60
11239;DHT22;5677;48.488;13.436;2024-02-15T02:49:22;13.50;49.70
11239;DHT22;5677;48.488;13.436;2024-02-15T02:51:49;13.50;49.70
11239;DHT22;5677;48.488;13.436;2024-02-15T02:54:16;13.50;49.70
11239;DHT22;5677;48.488;13.436;2024-02-15T02:56:43;13.50;49.60
11239;DHT22;5677;48.488;13.436;2024-02-15T02:59:10;13.50;49.70
11239;DHT22;5677;48.488;13.436;2024-02-15T03:01:39;13.50;49.70
11239;DHT22;5677;48.488;13.436;2024-02-15T03:04:06;13.50;49.70
11239;DHT22;5677;48.488;13.436;2024-02-15T03:06:33;13.50;49.70
11239;DHT22;5677;48.488;13.436;2024-02-15T03:09:01;13.50;49.70
11239;DHT22;5677;48.488;13.436;2024-02-15T03:11:32;13.50;49.70
11239;DHT22;5677;48.488;13.436;2024-02-15T03:13:59;13.50;49.80
11239;DHT22;5677;48.488;13.436;2024-02-15T03:16:26;13.50;49.70
11239;DHT22;5677;48.488;13.436;2024-02-15T03:18:54;13.50;49.70
11239;DHT22;5677;48.488;13.436;2024-02-15T03:21:21;13.50;49.70
11239;DHT22;5677;48.488;13.436;2024-02-15T03:23:47;13.50;49.70
11239;DHT22;5677;48.488;13.436;2024-02-15T03:26:14;13.50;49.80
11239;DHT22;5677;48.488;13.436;2024-02-15T03:28:41;13.50;49.70
11239;DHT22;5677;48.488;13.436;2024-02-15T03:31:08;13.40;49.60
11239;DHT22;5677;48.488;13.436;2024-02-15T03:33:35;13.50;49.70
11239;DHT22;5677;48.488;13.436;2024-02-15T03:36:04;13.40;49.70
11239;DHT22;5677;48.488;13.436;2024-02-15T03:38:31;13.40;49.60
11239;DHT22;5677;48.488;13.436;2024-02-15T03:40:58;13.50;49.70
11239;DHT22;5677;48.488;13.436;2024-02-15T03:43:25;13.40;49.70
11239;DHT22;5677;48.488;13.436;2024-02-15T03:45:52;13.40;49.70
11239;DHT22;5677;48.488;13.436;2024-02-15T03:48:18;13.50;49.80
11239;DHT22;5677;48.488;13.436;2024-02-15T03:50:45;13.40;49.70
11239;DHT22;5677;48.488;13.436;2024-02-15T03:53:15;13.40;49.70
11239;DHT22;5677;48.488;13.436;2024-02-15T03:55:41;13.50;49.80
11239;DHT22;5677;48.488;13.436;2024-02-15T03:58:08;13.40;49.60
11239;DHT22;5677;48.488;13.436;2024-02-15T04:00:35;13.40;49.70
11239;DHT22;5677;48.488;13.436;2024-02-15T04:03:04;13.40;49.70
11239;DHT22;5677;48.488;13.436;2024-02-15T04:05:31;13.40;49.70
11239;DHT22;5677;48.488;13.436;2024-02-15T04:07:58;13.40;49.70
11239;DHT22;5677;48.488;13.436;2024-02-15T04:10:29;13.40;49.70
11239;DHT22;5677;48.488;13.436;2024-02-15T04:12:55;13.40;49.70
11239;DHT22;5677;48.488;13.436;2024-02-15T04:15:23;13.40;49.70
11239;DHT22;5677;48.488;13.436;2024-02-15T04:17:50;13.40;49.70
11239;DHT22;5677;48.488;13.436;2024-02-15T04:20:21;13.40;49.70
11239;DHT22;5677;48.488;13.436;2024-02-15T04:22:48;13.40;49.70
11239;DHT22;5677;48.488;13.436;2024-02-15T04:25:15;13.40;49.70
11239;DHT22;5677;48.488;13.436;2024-02-15T04:27:46;13.40;49.70
11239;DHT22;5677;48.488;13.436;2024-02-15T04:30:13;13.40;49.70
11239;DHT22;5677;48.488;13.436;2024-02-15T04:32:40;13.40;49.70
11239;DHT22;5677;48.488;13.436;2024-02-15T04:35:07;13.40;49.70
11239;DHT22;5677;48.488;13.436;2024-02-15T04:37:35;13.40;49.70
11239;DHT22;5677;48.488;13.436;2024-02-15T04:40:03;13.40;49.70
11239;DHT22;5677;48.488;13.436;2024-02-15T04:42:34;13.40;49.70
11239;DHT22;5677;48.488;13.436;2024-02-15T04:45:04;13.40;49.70
11239;DHT22;5677;48.488;13.436;2024-02-15T04:47:34;13.40;49.60
11239;DHT22;5677;48.488;13.436;2024-02-15T04:50:00;13.40;49.70
11239;DHT22;5677;48.488;13.436;2024-02-15T04:52:28;13.40;49.70
11239;DHT22;5677;48.488;13.436;2024-02-15T04:54:55;13.40;49.70
11239;DHT22;5677;48.488;13.436;2024-02-15T04:57:23;13.40;49.70
11239;DHT22;5677;48.488;13.436;2024-02-15T04:59:51;13.40;49.70
11239;DHT22;5677;48.488;13.436;2024-02-15T05:02:19;13.40;49.70
11239;DHT22;5677;48.488;13.436;2024-02-15T05:04:47;13.40;49.70
11239;DHT22;5677;48.488;13.436;2024-02-15T05:07:14;13.40;49.70
11239;DHT22;5677;48.488;13.436;2024-02-15T05:09:42;13.40;49.70
11239;DHT22;5677;48.488;13.436;2024-02-15T05:12:09;13.40;49.70
11239;DHT22;5677;48.488;13.436;2024-02-15T05:14:36;13.40;49.70
11239;DHT22;5677;48.488;13.436;2024-02-15T05:17:03;13.40;49.70
11239;DHT22;5677;48.488;13.436;2024-02-15T05:19:31;13.40;49.70
11239;DHT22;5677;48.488;13.436;2024-02-15T05:21:58;13.40;49.70
11239;DHT22;5677;48.488;13.436;2024-02-15T05:24:24;13.40;49.70
11239;DHT22;5677;48.488;13.436;2024-02-15T05:26:51;13.40;49.70
11239;DHT22;5677;48.488;13.436;2024-02-15T05:29:18;13.40;49.70
11239;DHT22;5677;48.488;13.436;2024-02-15T05:31:46;13.40;49.70
11239;DHT22;5677;48.488;13.436;2024-02-15T05:34:15;13.40;49.70
11239;DHT22;5677;48.488;13.436;2024-02-15T05:36:43;13.40;49.70
11239;DHT22;5677;48.488;13.436;2024-02-15T05:39:10;13.40;49.70
11239;DHT22;5677;48.488;13.436;2024-02-15T05:41:40;13.40;49.70
11239;DHT22;5677;48.488;13.436;2024-02-15T05:44:06;13.40;49.70
11239;DHT22;5677;48.488;13.436;2024-02-15T05:46:34;13.40;49.70
11239;DHT22;5677;48.488;13.436;2024-02-15T05:49:03;13.40;49.70
11239;DHT22;5677;48.488;13.436;2024-02-15T05:51:30;13.40;49.70
11239;DHT22;5677;48.488;13.436;2024-02-15T05:54:00;13.40;49.70
11239;DHT22;5677;48.488;13.436;2024-02-15T05:56:28;13.40;49.70
11239;DHT22;5677;48.488;13.436;2024-02-15T05:58:55;13.40;49.70
11239;DHT22;5677;48.488;13.436;2024-02-15T06:01:22;13.40;49.70
11239;DHT22;5677;48.488;13.436;2024-02-15T06:03:49;13.40;49.70
11239;DHT22;5677;48.488;13.436;2024-02-15T06:06:20;13.40;50.40
11239;DHT22;5677;48.488;13.436;2024-02-15T06:08:47;13.40;49.70
11239;DHT22;5677;48.488;13.436;2024-02-15T06:11:19;13.40;49.70
11239;DHT22;5677;48.488;13.436;2024-02-15T06:13:46;13.40;49.70
11239;DHT22;5677;48.488;13.436;2024-02-15T06:16:13;13.40;49.70
11239;DHT22;5677;48.488;13.436;2024-02-15T06:18:40;13.40;49.70
11239;DHT22;5677;48.488;13.436;2024-02-15T06:21:06;13.40;49.70
11239;DHT22;5677;48.488;13.436;2024-02-15T06:23:34;13.40;49.70
11239;DHT22;5677;48.488;13.436;2024-02-15T06:26:01;13.40;49.60
11239;DHT22;5677;48.488;13.436;2024-02-15T06:28:29;13.40;49.60
11239;DHT22;5677;48.488;13.436;2024-02-15T06:31:14;13.40;49.70
11239;DHT22;5677;48.488;13.436;2024-02-15T06:33:58;13.40;49.70
11239;DHT22;5677;48.488;13.436;2024-02-15T06:36:47;13.40;49.70
11239;DHT22;5677;48.488;13.436;2024-02-15T06:39:32;13.40;49.70
11239;DHT22;5677;48.488;13.436;2024-02-15T06:42:06;13.40;49.70
11239;DHT22;5677;48.488;13.436;2024-02-15T06:44:34;13.40;49.70
11239;DHT22;5677;48.488;13.436;2024-02-15T06:47:01;13.40;49.60
11239;DHT22;5677;48.488;13.436;2024-02-15T06:49:28;13.40;49.70
11239;DHT22;5677;48.488;13.436;2024-02-15T06:51:55;13.40;49.70
11239;DHT22;5677;48.488;13.436;2024-02-15T06:54:21;13.40;49.70
11239;DHT22;5677;48.488;13.436;2024-02-15T06:56:49;13.40;49.70
11239;DHT22;5677;48.488;13.436;2024-02-15T06:59:17;13.40;49.70
11239;DHT22;5677;48.488;13.436;2024-02-15T07:01:46;13.40;49.60
11239;DHT22;5677;48.488;13.436;2024-02-15T07:04:13;13.40;49.60
11239;DHT22;5677;48.488;13.436;2024-02-15T07:06:39;13.40;49.60
11239;DHT22;5677;48.488;13.436;2024-02-15T07:09:10;13.40;49.60
11239;DHT22;5677;48.488;13.436;2024-02-15T07:11:37;13.40;49.50
11239;DHT22;5677;48.488;13.436;2024-02-15T07:14:04;13.50;49.60
11239;DHT22;5677;48.488;13.436;2024-02-15T07:16:32;13.40;49.50
11239;DHT22;5677;48.488;13.436;2024-02-15T07:19:01;13.50;49.60
11239;DHT22;5677;48.488;13.436;2024-02-15T07:21:28;13.40;49.60
11239;DHT22;5677;48.488;13.436;2024-02-15T07:23:57;13.40;49.50
11239;DHT22;5677;48.488;13.436;2024-02-15T07:26:24;13.40;49.50
11239;DHT22;5677;48.488;13.436;2024-02-15T07:28:51;13.40;49.50
11239;DHT22;5677;48.488;13.436;2024-02-15T07:31:19;13.40;49.50
11239;DHT22;5677;48.488;13.436;2024-02-15T07:33:47;13.40;49.50
11239;DHT22;5677;48.488;13.436;2024-02-15T07:36:18;13.50;49.60
11239;DHT22;5677;48.488;13.436;2024-02-15T07:38:44;13.50;49.60
11239;DHT22;5677;48.488;13.436;2024-02-15T07:41:13;13.50;49.60
11239;DHT22;5677;48.488;13.436;2024-02-15T07:43:40;13.50;49.60
11239;DHT22;5677;48.488;13.436;2024-02-15T07:46:11;13.50;49.60
11239;DHT22;5677;48.488;13.436;2024-02-15T07:48:38;13.50;49.60
11239;DHT22;5677;48.488;13.436;2024-02-15T07:51:11;13.50;49.60
11239;DHT22;5677;48.488;13.436;2024-02-15T07:53:39;13.50;49.60
11239;DHT22;5677;48.488;13.436;2024-02-15T07:56:08;13.50;49.60
11239;DHT22;5677;48.488;13.436;2024-02-15T07:58:38;13.50;49.60
11239;DHT22;5677;48.488;13.436;2024-02-15T08:01:06;13.50;49.50
11239;DHT22;5677;48.488;13.436;2024-02-15T08:03:33;13.50;49.40
11239;DHT22;5677;48.488;13.436;2024-02-15T08:06:00;13.50;49.40
11239;DHT22;5677;48.488;13.436;2024-02-15T08:08:27;13.50;49.40
11239;DHT22;5677;48.488;13.436;2024-02-15T08:10:55;13.60;49.40
11239;DHT22;5677;48.488;13.436;2024-02-15T08:13:22;13.60;49.40
11239;DHT22;5677;48.488;13.436;2024-02-15T08:15:53;13.60;49.30
11239;DHT22;5677;48.488;13.436;2024-02-15T08:18:20;13.60;49.30
11239;DHT22;5677;48.488;13.436;2024-02-15T08:20:47;13.60;49.40
11239;DHT22;5677;48.488;13.436;2024-02-15T08:23:14;13.60;49.40
11239;DHT22;5677;48.488;13.436;2024-02-15T08:25:40;13.60;49.30
11239;DHT22;5677;48.488;13.436;2024-02-15T08:28:09;13.60;49.30
11239;DHT22;5677;48.488;13.436;2024-02-15T08:30:36;13.60;49.30
11239;DHT22;5677;48.488;13.436;2024-02-15T08:33:04;13.60;49.30
11239;DHT22;5677;48.488;13.436;2024-02-15T08:35:30;13.60;49.30
11239;DHT22;5677;48.488;13.436;2024-02-15T08:37:58;13.60;49.30
11239;DHT22;5677;48.488;13.436;2024-02-15T08:40:24;13.60;49.20
11239;DHT22;5677;48.488;13.436;2024-02-15T08:42:51;13.60;49.20
11239;DHT22;5677;48.488;13.436;2024-02-15T08:45:19;13.70;49.50
11239;DHT22;5677;48.488;13.436;2024-02-15T08:47:46;13.70;50.50
11239;DHT22;5677;48.488;13.436;2024-02-15T08:50:15;13.70;53.00
11239;DHT22;5677;48.488;13.436;2024-02-15T08:52:42;13.70;50.10
11239;DHT22;5677;48.488;13.436;2024-02-15T08:55:10;13.70;49.30
11239;DHT22;5677;48.488;13.436;2024-02-15T08:57:40;13.80;49.20
11239;DHT22;5677;48.488;13.436;2024-02-15T09:00:11;13.80;49.00
11239;DHT22;5677;48.488;13.436;2024-02-15T09:02:43;13.80;48.90
11239;DHT22;5677;48.488;13.436;2024-02-15T09:05:10;13.80;48.90
11239;DHT22;5677;48.488;13.436;2024-02-15T09:07:39;13.80;48.80
11239;DHT22;5677;48.488;13.436;2024-02-15T09:10:07;13.80;48.80
11239;DHT22;5677;48.488;13.436;2024-02-15T09:12:35;13.90;48.70
11239;DHT22;5677;48.488;13.436;2024-02-15T09:15:05;14.00;48.50
11239;DHT22;5677;48.488;13.436;2024-02-15T09:17:33;14.00;48.20
11239;DHT22;5677;48.488;13.436;2024-02-15T09:20:06;14.10;48.10
11239;DHT22;5677;48.488;13.436;2024-02-15T09:22:34;14.20;47.90
11239;DHT22;5677;48.488;13.436;2024-02-15T09:25:01;14.30;48.60
11239;DHT22;5677;48.488;13.436;2024-02-15T09:27:28;14.30;47.90
11239;DHT22;5677;48.488;13.436;2024-02-15T09:29:55;14.40;47.60
11239;DHT22;5677;48.488;13.436;2024-02-15T09:32:22;14.40;47.30
11239;DHT22;5677;48.488;13.436;2024-02-15T09:34:49;14.40;47.50
11239;DHT22;5677;48.488;13.436;2024-02-15T09:37:17;14.40;47.90
11239;DHT22;5677;48.488;13.436;2024-02-15T09:39:44;14.40;48.00
11239;DHT22;5677;48.488;13.436;2024-02-15T09:42:11;14.40;47.90
11239;DHT22;5677;48.488;13.436;2024-02-15T09:44:38;14.30;48.00
11239;DHT22;5677;48.488;13.436;2024-02-15T09:47:06;14.30;48.20
11239;DHT22;5677;48.488;13.436;2024-02-15T09:59:57;14.30;47.80
11239;DHT22;5677;48.488;13.436;2024-02-15T10:02:24;14.30;47.90
11239;DHT22;5677;48.488;13.436;2024-02-15T10:04:52;14.30;48.10
11239;DHT22;5677;48.488;13.436;2024-02-15T10:07:21;14.30;48.40
11239;DHT22;5677;48.488;13.436;2024-02-15T10:09:48;14.30;48.50
11239;DHT22;5677;48.488;13.436;2024-02-15T10:12:15;14.30;48.80
11239;DHT22;5677;48.488;13.436;2024-02-15T10:14:48;14.30;49.60
11239;DHT22;5677;48.488;13.436;2024-02-15T10:17:18;14.30;50.90
11239;DHT22;5677;48.488;13.436;2024-02-15T10:19:48;14.30;53.20
11239;DHT22;5677;48.488;13.436;2024-02-15T10:22:28;14.30;56.60
11239;DHT22;5677;48.488;13.436;2024-02-15T10:25:10;14.30;54.90
11239;DHT22;5677;48.488;13.436;2024-02-15T10:27:37;14.30;59.30
11239;DHT22;5677;48.488;13.436;2024-02-15T10:30:14;14.30;47.00
11239;DHT22;5677;48.488;13.436;2024-02-15T10:32:43;14.30;47.70
11239;DHT22;5677;48.488;13.436;2024-02-15T10:35:10;14.30;47.70
11239;DHT22;5677;48.488;13.436;2024-02-15T10:37:41;14.30;47.60
11239;DHT22;5677;48.488;13.436;2024-02-15T10:40:08;14.30;47.70
11239;DHT22;5677;48.488;13.436;2024-02-15T10:42:36;14.30;47.80
11239;DHT22;5677;48.488;13.436;2024-02-15T10:45:03;14.30;47.80
11239;DHT22;5677;48.488;13.436;2024-02-15T10:47:30;14.30;47.80
11239;DHT22;5677;48.488;13.436;2024-02-15T10:49:59;14.30;47.70
11239;DHT22;5677;48.488;13.436;2024-02-15T10:52:31;14.30;47.80
11239;DHT22;5677;48.488;13.436;2024-02-15T10:55:03;14.30;47.80
11239;DHT22;5677;48.488;13.436;2024-02-15T10:57:31;14.30;47.80
11239;DHT22;5677;48.488;13.436;2024-02-15T11:00:00;14.30;47.80
11239;DHT22;5677;48.488;13.436;2024-02-15T11:02:37;14.30;47.80
11239;DHT22;5677;48.488;13.436;2024-02-15T11:05:08;14.30;47.90
11239;DHT22;5677;48.488;13.436;2024-02-15T11:07:36;14.30;47.90
11239;DHT22;5677;48.488;13.436;2024-02-15T11:20:52;14.30;48.00
11239;DHT22;5677;48.488;13.436;2024-02-15T11:23:25;14.30;48.00
11239;DHT22;5677;48.488;13.436;2024-02-15T11:25:53;14.30;48.10
11239;DHT22;5677;48.488;13.436;2024-02-15T11:28:37;14.30;48.20
11239;DHT22;5677;48.488;13.436;2024-02-15T11:31:09;14.30;48.20
11239;DHT22;5677;48.488;13.436;2024-02-15T11:33:38;14.30;48.20
11239;DHT22;5677;48.488;13.436;2024-02-15T11:36:07;14.40;48.30
11239;DHT22;5677;48.488;13.436;2024-02-15T11:38:34;14.30;48.20
11239;DHT22;5677;48.488;13.436;2024-02-15T11:41:04;14.40;48.20
11239;DHT22;5677;48.488;13.436;2024-02-15T11:43:51;14.40;48.20
11239;DHT22;5677;48.488;13.436;2024-02-15T11:46:23;14.40;48.20
11239;DHT22;5677;48.488;13.436;2024-02-15T11:48:52;14.40;48.20
11239;DHT22;5677;48.488;13.436;2024-02-15T11:51:27;14.40;48.20
11239;DHT22;5677;48.488;13.436;2024-02-15T11:54:06;14.40;48.20
11239;DHT22;5677;48.488;13.436;2024-02-15T11:56:51;14.40;48.20
11239;DHT22;5677;48.488;13.436;2024-02-15T11:59:20;14.40;48.10
11239;DHT22;5677;48.488;13.436;2024-02-15T12:01:57;14.40;48.10
11239;DHT22;5677;48.488;13.436;2024-02-15T12:04:41;14.40;48.10
11239;DHT22;5677;48.488;13.436;2024-02-15T12:07:27;14.50;48.10
11239;DHT22;5677;48.488;13.436;2024-02-15T12:10:16;14.50;48.10
11239;DHT22;5677;48.488;13.436;2024-02-15T12:13:00;14.50;48.10
11239;DHT22;5677;48.488;13.436;2024-02-15T12:15:56;14.50;48.00
11239;DHT22;5677;48.488;13.436;2024-02-15T12:18:41;14.50;48.00
11239;DHT22;5677;48.488;13.436;2024-02-15T12:21:14;14.50;48.00
11239;DHT22;5677;48.488;13.436;2024-02-15T12:23:44;14.50;48.00
11239;DHT22;5677;48.488;13.436;2024-02-15T12:26:11;14.60;48.00
11239;DHT22;5677;48.488;13.436;2024-02-15T12:28:40;14.50;48.00
11239;DHT22;5677;48.488;13.436;2024-02-15T12:31:09;14.50;48.00
11239;DHT22;5677;48.488;13.436;2024-02-15T12:33:38;14.50;48.00
11239;DHT22;5677;48.488;13.436;2024-02-15T12:36:06;14.50;48.00
11239;DHT22;5677;48.488;13.436;2024-02-15T12:38:33;14.50;48.10
11239;DHT22;5677;48.488;13.436;2024-02-15T12:41:05;14.50;48.10
11239;DHT22;5677;48.488;13.436;2024-02-15T12:43:43;14.60;48.00
11239;DHT22;5677;48.488;13.436;2024-02-15T12:46:10;14.60;48.00
11239;DHT22;5677;48.488;13.436;2024-02-15T12:48:38;14.60;48.00
11239;DHT22;5677;48.488;13.436;2024-02-15T12:51:13;14.60;48.00
11239;DHT22;5677;48.488;13.436;2024-02-15T12:53:40;14.60;48.00
11239;DHT22;5677;48.488;13.436;2024-02-15T12:56:08;14.60;48.00
11239;DHT22;5677;48.488;13.436;2024-02-15T12:58:35;14.60;48.00
11239;DHT22;5677;48.488;13.436;2024-02-15T13:01:04;14.60;48.00
11239;DHT22;5677;48.488;13.436;2024-02-15T13:03:31;14.60;48.00
11239;DHT22;5677;48.488;13.436;2024-02-15T13:05:58;14.60;48.00
11239;DHT22;5677;48.488;13.436;2024-02-15T13:08:24;14.60;48.00
11239;DHT22;5677;48.488;13.436;2024-02-15T13:10:51;14.60;48.00
11239;DHT22;5677;48.488;13.436;2024-02-15T13:13:19;14.70;48.00
11239;DHT22;5677;48.488;13.436;2024-02-15T13:15:47;14.70;47.90
11239;DHT22;5677;48.488;13.436;2024-02-15T13:18:13;14.60;47.90
11239;DHT22;5677;48.488;13.436;2024-02-15T13:20:40;14.70;48.00
11239;DHT22;5677;48.488;13.436;2024-02-15T13:23:09;14.60;47.90
11239;DHT22;5677;48.488;13.436;2024-02-15T13:25:41;14.60;47.90
11239;DHT22;5677;48.488;13.436;2024-02-15T13:28:09;14.60;47.90
11239;DHT22;5677;48.488;13.436;2024-02-15T13:30:37;14.70;48.10
11239;DHT22;5677;48.488;13.436;2024-02-15T13:33:04;14.60;48.10
11239;DHT22;5677;48.488;13.436;2024-02-15T13:35:32;14.60;48.00
11239;DHT22;5677;48.488;13.436;2024-02-15T13:37:58;14.60;48.10
11239;DHT22;5677;48.488;13.436;2024-02-15T13:40:26;14.60;48.10
11239;DHT22;5677;48.488;13.436;2024-02-15T13:42:54;14.60;48.10
11239;DHT22;5677;48.488;13.436;2024-02-15T13:45:26;14.60;48.10
11239;DHT22;5677;48.488;13.436;2024-02-15T13:47:56;14.60;48.20
11239;DHT22;5677;48.488;13.436;2024-02-15T13:50:23;14.60;48.20
11239;DHT22;5677;48.488;13.436;2024-02-15T13:52:50;14.60;48.20
11239;DHT22;5677;48.488;13.436;2024-02-15T13:55:18;14.60;48.20
11239;DHT22;5677;48.488;13.436;2024-02-15T13:57:46;14.60;48.20
11239;DHT22;5677;48.488;13.436;2024-02-15T14:00:14;14.60;48.20
11239;DHT22;5677;48.488;13.436;2024-02-15T14:02:47;14.60;48.20
11239;DHT22;5677;48.488;13.436;2024-02-15T14:05:16;14.60;48.30
11239;DHT22;5677;48.488;13.436;2024-02-15T14:07:46;14.60;48.30
11239;DHT22;5677;48.488;13.436;2024-02-15T14:10:13;14.60;48.90
11239;DHT22;5677;48.488;13.436;2024-02-15T14:12:40;14.60;48.20
11239;DHT22;5677;48.488;13.436;2024-02-15T14:15:07;14.60;48.20
11239;DHT22;5677;48.488;13.436;2024-02-15T14:17:34;14.60;48.30
11239;DHT22;5677;48.488;13.436;2024-02-15T14:20:01;14.60;48.30
11239;DHT22;5677;48.488;13.436;2024-02-15T14:22:31;14.60;48.30
11239;DHT22;5677;48.488;13.436;2024-02-15T14:24:59;14.60;48.30
11239;DHT22;5677;48.488;13.436;2024-02-15T14:27:26;14.60;48.30
11239;DHT22;5677;48.488;13.436;2024-02-15T14:29:52;14.60;48.30
11239;DHT22;5677;48.488;13.436;2024-02-15T14:32:36;14.60;48.30
11239;DHT22;5677;48.488;13.436;2024-02-15T14:35:21;14.60;48.30
11239;DHT22;5677;48.488;13.436;2024-02-15T14:37:49;14.60;48.20
11239;DHT22;5677;48.488;13.436;2024-02-15T14:40:15;14.60;48.20
11239;DHT22;5677;48.488;13.436;2024-02-15T14:42:42;14.60;48.20
11239;DHT22;5677;48.488;13.436;2024-02-15T14:45:10;14.60;48.20
11239;DHT22;5677;48.488;13.436;2024-02-15T14:47:37;14.60;48.30
11239;DHT22;5677;48.488;13.436;2024-02-15T14:50:04;14.60;48.20
11239;DHT22;5677;48.488;13.436;2024-02-15T14:52:34;14.60;48.30
11239;DHT22;5677;48.488;13.436;2024-02-15T14:55:02;14.60;48.30
11239;DHT22;5677;48.488;13.436;2024-02-15T14:57:30;14.60;48.20
11239;DHT22;5677;48.488;13.436;2024-02-15T14:59:58;14.60;48.30
11239;DHT22;5677;48.488;13.436;2024-02-15T15:02:24;14.60;48.30
11239;DHT22;5677;48.488;13.436;2024-02-15T15:04:51;14.60;48.30
11239;DHT22;5677;48.488;13.436;2024-02-15T15:07:44;14.60;48.30
11239;DHT22;5677;48.488;13.436;2024-02-15T15:10:30;14.60;48.30
11239;DHT22;5677;48.488;13.436;2024-02-15T15:13:14;14.60;48.30
11239;DHT22;5677;48.488;13.436;2024-02-15T15:15:41;14.60;48.30
11239;DHT22;5677;48.488;13.436;2024-02-15T15:18:08;14.60;48.30
11239;DHT22;5677;48.488;13.436;2024-02-15T15:20:35;14.60;48.40
11239;DHT22;5677;48.488;13.436;2024-02-15T15:23:03;14.60;48.40
11239;DHT22;5677;48.488;13.436;2024-02-15T15:25:31;14.60;48.40
11239;DHT22;5677;48.488;13.436;2024-02-15T15:27:58;14.60;48.40
11239;DHT22;5677;48.488;13.436;2024-02-15T15:30:25;14.50;48.40
11239;DHT22;5677;48.488;13.436;2024-02-15T15:32:52;14.50;48.40
11239;DHT22;5677;48.488;13.436;2024-02-15T15:35:19;14.50;48.40
11239;DHT22;5677;48.488;13.436;2024-02-15T15:37:47;14.50;48.40
11239;DHT22;5677;48.488;13.436;2024-02-15T15:40:16;14.50;48.40
11239;DHT22;5677;48.488;13.436;2024-02-15T15:42:44;14.60;48.40
11239;DHT22;5677;48.488;13.436;2024-02-15T15:45:11;14.50;48.40
11239;DHT22;5677;48.488;13.436;2024-02-15T15:47:38;14.50;48.40
11239;DHT22;5677;48.488;13.436;2024-02-15T15:50:06;14.50;48.40
11239;DHT22;5677;48.488;13.436;2024-02-15T15:52:33;14.50;48.40
11239;DHT22;5677;48.488;13.436;2024-02-15T15:55:00;14.50;48.40
11239;DHT22;5677;48.488;13.436;2024-02-15T15:57:27;14.50;48.50
11239;DHT22;5677;48.488;13.436;2024-02-15T15:59:56;14.50;48.40
11239;DHT22;5677;48.488;13.436;2024-02-15T16:02:23;14.50;48.40
11239;DHT22;5677;48.488;13.436;2024-02-15T16:04:50;14.50;48.40